Pagina principale
METAR-TAF:

METAR-TAF

Aeroporti :

Aeroporto di Albenga

Albenga, Italia

latitudine: 44-03N, longitudine: 008-07E, altezza: 45 m

Osservazione

Il bollettino è stato emesso 1 ora e 24 minuti fa, alle 12:50 UTC
Vento 5 kt da est/nord-est, variando fra nord/nord-est e est
Temperature 22°C
Umidità 57%
Pressione 999 hPa
Visibilità 10 km o più
Poco nuvoloso ad un'altezza di 3500 ft

METAR: LIMG 271250Z 07005KT 030V090 9999 FEW035 22/13 Q0999

Ora: 16:14 (14:14 UTC)

Previsione

Il bollettino è stato emesso 3 ore e 14 minuti fa, alle 11:00 UTC
Previsione valida dal 27 alle 12 UTC al 28 alle 12 UTC
Vento 10 kt da est/sud-est
Visibilità 10 km o più
Nubi sparse ad un'altezza di 4000 ft
Evoluzione graduale
dal 27 alle 16 UTC al 27 alle 18 UTC
Vento 5 kt da direzioni variabili
Evoluzione graduale
dal 28 alle 08 UTC al 28 alle 10 UTC
Vento 10 kt da est/sud-est

TAF: LIMG 271100Z 2712/2812 12010KT 9999 SCT040 BECMG 2716/2718 VRB05KT BECMG 2808/2810 12010KT

Osservazioni e previsioni meteorologiche di più di 4000 aeroporti (messaggi METAR e TAF).

Le stazioni disponibili sono rappresentate dai dischi gialli e rossi sulla carta.

Puntare il mouse per vedere il nome della stazione.

Clicca sopra per visualizzare le osservazioni e previsioni meteorologiche.

Per cambiare la mappa : fare clic sui pulsanti verdi con una croce nera per ingrandire, il pulsante verde con un trattino per diminuire, o sulla freccia verde per le mappe adiacenti.


METAR-TAF: